createdAt,value
2023-04-07T00:01:40.582Z,5.40
2023-04-07T00:04:11.520Z,5.10
2023-04-07T00:06:40.683Z,5.10
2023-04-07T00:09:11.412Z,5.10
2023-04-07T00:11:39.568Z,5.00
2023-04-07T00:14:10.955Z,4.90
2023-04-07T00:16:42.615Z,5.10
2023-04-07T00:19:10.858Z,4.80
2023-04-07T00:21:38.986Z,4.70
2023-04-07T00:24:09.431Z,4.70
2023-04-07T00:26:37.735Z,4.60
2023-04-07T00:29:06.063Z,4.60
2023-04-07T00:31:34.366Z,4.50
2023-04-07T00:34:06.312Z,4.50
2023-04-07T00:36:34.637Z,4.40
2023-04-07T00:39:02.830Z,4.40
2023-04-07T00:41:30.955Z,4.30
2023-04-07T00:43:59.217Z,4.60
2023-04-07T00:46:28.327Z,4.20
2023-04-07T00:48:56.759Z,4.20
2023-04-07T00:51:27.112Z,4.10
2023-04-07T00:53:57.079Z,4.10
2023-04-07T00:56:25.901Z,4.10
2023-04-07T00:58:54.165Z,4.20
2023-04-07T01:01:26.120Z,4.00
2023-04-07T01:03:59.317Z,3.90
2023-04-07T01:06:40.112Z,3.90
2023-04-07T01:09:14.824Z,3.90
2023-04-07T01:11:49.753Z,4.00
2023-04-07T01:14:21.729Z,3.90
2023-04-07T01:17:02.978Z,3.80
2023-04-07T01:19:38.064Z,3.80
2023-04-07T01:22:13.730Z,3.70
2023-04-07T01:24:58.535Z,3.70
2023-04-07T01:27:39.509Z,3.60
2023-04-07T01:30:13.704Z,3.60
2023-04-07T01:32:45.032Z,3.50
2023-04-07T01:35:15.102Z,3.50
2023-04-07T01:37:46.578Z,3.50
2023-04-07T01:40:18.568Z,3.50
2023-04-07T01:42:48.258Z,3.50
2023-04-07T01:45:19.466Z,3.40
2023-04-07T01:47:51.614Z,3.40
2023-04-07T01:50:23.552Z,3.40
2023-04-07T01:52:52.721Z,3.40
2023-04-07T01:55:21.392Z,3.30
2023-04-07T01:58:06.216Z,3.30
2023-04-07T02:00:37.463Z,3.30
2023-04-07T02:03:22.327Z,3.50
2023-04-07T02:05:57.066Z,3.30
2023-04-07T02:08:31.254Z,3.30
2023-04-07T02:11:05.470Z,3.20
2023-04-07T02:13:39.674Z,3.20
2023-04-07T02:16:16.751Z,3.40
2023-04-07T02:18:47.961Z,3.20
2023-04-07T02:21:18.524Z,3.20
2023-04-07T02:23:48.176Z,3.20
2023-04-07T02:26:16.764Z,3.30
2023-04-07T02:28:45.213Z,3.10
2023-04-07T02:31:14.956Z,3.20
2023-04-07T02:33:43.208Z,3.00
2023-04-07T02:36:11.396Z,3.00
2023-04-07T02:38:39.800Z,3.00
2023-04-07T02:41:11.109Z,3.00
2023-04-07T02:43:39.318Z,3.20
2023-04-07T02:46:07.619Z,3.20
2023-04-07T02:48:37.488Z,2.90
2023-04-07T02:51:06.207Z,2.90
2023-04-07T02:53:34.627Z,2.90
2023-04-07T02:56:03.884Z,2.90
2023-04-07T02:58:32.044Z,2.80
2023-04-07T03:01:00.406Z,2.80
2023-04-07T03:03:31.809Z,2.90
2023-04-07T03:06:09.388Z,2.80
2023-04-07T03:08:45.333Z,2.80
2023-04-07T03:11:13.857Z,3.00
2023-04-07T03:13:42.162Z,2.80
2023-04-07T03:16:10.349Z,2.80
2023-04-07T03:18:48.353Z,2.80
2023-04-07T03:21:18.525Z,2.80
2023-04-07T03:23:47.218Z,2.80
2023-04-07T03:26:15.662Z,2.80
2023-04-07T03:28:44.430Z,2.80
2023-04-07T03:31:13.445Z,2.80
2023-04-07T03:33:42.109Z,2.80
2023-04-07T03:36:11.155Z,3.00
2023-04-07T03:38:41.769Z,2.80
2023-04-07T03:41:10.509Z,2.80
2023-04-07T03:43:38.802Z,3.00
2023-04-07T03:46:07.117Z,2.80
2023-04-07T03:48:37.419Z,2.90
2023-04-07T03:51:09.068Z,2.80
2023-04-07T03:53:39.462Z,2.80
2023-04-07T03:56:28.983Z,2.80
2023-04-07T03:58:59.088Z,2.90
2023-04-07T04:01:31.451Z,2.90
2023-04-07T04:04:07.211Z,2.80
2023-04-07T04:06:36.380Z,2.80
2023-04-07T04:09:13.103Z,2.80
2023-04-07T04:11:47.878Z,2.80
2023-04-07T04:14:17.318Z,2.80
2023-04-07T04:16:51.939Z,2.90
2023-04-07T04:19:27.890Z,2.80
2023-04-07T04:21:58.528Z,2.80
2023-04-07T04:24:31.055Z,2.80
2023-04-07T04:27:04.445Z,2.80
2023-04-07T04:29:33.519Z,2.80
2023-04-07T04:32:04.572Z,2.80
2023-04-07T04:34:33.214Z,2.90
2023-04-07T04:37:03.544Z,2.80
2023-04-07T04:39:34.918Z,2.80
2023-04-07T04:42:05.693Z,3.00
2023-04-07T04:44:36.935Z,2.80
2023-04-07T04:47:07.147Z,2.80
2023-04-07T04:49:36.294Z,2.80
2023-04-07T04:52:06.373Z,2.70
2023-04-07T04:54:40.487Z,2.80
2023-04-07T04:57:11.250Z,2.70
2023-04-07T04:59:42.541Z,2.70
2023-04-07T05:02:11.326Z,2.70
2023-04-07T05:04:39.806Z,2.70
2023-04-07T05:07:24.898Z,2.70
2023-04-07T05:09:55.242Z,2.70
2023-04-07T05:12:25.172Z,2.80
2023-04-07T05:14:59.150Z,2.80
2023-04-07T05:17:27.560Z,2.80
2023-04-07T05:19:55.957Z,2.90
2023-04-07T05:22:35.085Z,3.10
2023-04-07T05:25:04.669Z,3.20
2023-04-07T05:27:34.927Z,3.00
2023-04-07T05:30:10.295Z,3.00
2023-04-07T05:32:40.452Z,3.10
2023-04-07T05:35:19.580Z,3.10
2023-04-07T05:37:53.943Z,3.20
2023-04-07T05:40:22.877Z,3.10
2023-04-07T05:42:53.150Z,3.30
2023-04-07T05:45:21.586Z,3.20
2023-04-07T05:47:52.281Z,3.40
2023-04-07T05:50:27.567Z,3.30
2023-04-07T05:52:56.544Z,3.30
2023-04-07T05:55:27.905Z,3.40
2023-04-07T05:58:01.480Z,3.40
2023-04-07T06:00:32.971Z,3.40
2023-04-07T06:03:08.170Z,3.60
2023-04-07T06:05:48.257Z,3.60
2023-04-07T06:08:17.217Z,3.80
2023-04-07T06:10:46.799Z,3.90
2023-04-07T06:13:16.489Z,3.80
2023-04-07T06:15:44.796Z,3.90
2023-04-07T06:18:12.958Z,3.90
2023-04-07T06:20:41.184Z,4.10
2023-04-07T06:23:09.432Z,4.30
2023-04-07T06:25:37.645Z,4.20
2023-04-07T06:28:05.924Z,4.30
2023-04-07T06:30:37.762Z,4.30
2023-04-07T06:33:09.664Z,4.50
2023-04-07T06:35:37.863Z,4.50
2023-04-07T06:38:06.827Z,4.50
2023-04-07T06:40:34.998Z,4.80
2023-04-07T06:43:04.073Z,4.70
2023-04-07T06:45:47.472Z,4.80
2023-04-07T06:48:15.888Z,4.90
2023-04-07T06:50:51.898Z,5.10
2023-04-07T06:53:21.734Z,5.10
2023-04-07T06:55:50.023Z,5.30
2023-04-07T06:58:20.547Z,5.30
2023-04-07T07:00:50.456Z,5.60
2023-04-07T07:03:18.948Z,5.80
2023-04-07T07:05:50.470Z,5.80
2023-04-07T07:08:18.968Z,5.90
2023-04-07T07:10:47.157Z,6.10
2023-04-07T07:13:15.744Z,6.30
2023-04-07T07:15:43.918Z,6.40
2023-04-07T07:18:13.781Z,6.50
2023-04-07T07:20:42.011Z,6.70
2023-04-07T07:23:10.423Z,6.80
2023-04-07T07:25:38.553Z,6.80
2023-04-07T07:28:06.678Z,7.00
2023-04-07T07:30:35.022Z,7.10
2023-04-07T07:33:03.616Z,7.30
2023-04-07T07:35:33.699Z,7.50
2023-04-07T07:38:02.835Z,7.70
2023-04-07T07:40:31.346Z,8.10
2023-04-07T07:43:00.138Z,8.10
2023-04-07T07:45:31.365Z,8.30
2023-04-07T07:47:59.858Z,8.40
2023-04-07T07:50:27.990Z,8.60
2023-04-07T07:53:00.397Z,8.80
2023-04-07T07:55:29.036Z,8.80
2023-04-07T07:57:57.686Z,8.90
2023-04-07T08:00:32.233Z,8.90
2023-04-07T08:03:01.105Z,8.90
2023-04-07T08:05:31.904Z,9.10
2023-04-07T08:08:06.895Z,9.20
2023-04-07T08:10:35.549Z,9.30
2023-04-07T08:13:05.488Z,9.50
2023-04-07T08:15:34.409Z,9.50
2023-04-07T08:18:07.188Z,9.90
2023-04-07T08:20:36.373Z,10.30
2023-04-07T08:23:06.941Z,10.30
2023-04-07T08:25:36.504Z,10.60
2023-04-07T08:28:04.970Z,10.90
2023-04-07T08:30:33.302Z,11.10
2023-04-07T08:33:07.254Z,11.40
2023-04-07T08:35:37.861Z,11.60
2023-04-07T08:38:09.247Z,11.90
2023-04-07T08:40:37.948Z,12.10
2023-04-07T08:43:11.008Z,12.20
2023-04-07T08:45:44.524Z,12.50
2023-04-07T08:48:18.980Z,12.50
2023-04-07T08:50:53.021Z,12.90
2023-04-07T08:53:32.917Z,13.20
2023-04-07T08:56:03.175Z,13.30
2023-04-07T08:58:31.957Z,13.50
2023-04-07T09:01:04.530Z,13.70
2023-04-07T09:03:34.009Z,13.80
2023-04-07T09:06:03.089Z,14.00
2023-04-07T09:08:33.015Z,14.20
2023-04-07T09:11:28.006Z,14.30
2023-04-07T09:13:56.940Z,14.30
2023-04-07T09:16:25.494Z,14.30
2023-04-07T09:18:56.613Z,14.40
2023-04-07T09:21:24.900Z,14.50
2023-04-07T09:23:55.057Z,14.50
2023-04-07T09:26:25.726Z,14.70
2023-04-07T09:28:56.310Z,14.80
2023-04-07T09:31:26.974Z,14.80
2023-04-07T09:33:55.582Z,14.80
2023-04-07T09:36:33.841Z,14.80
2023-04-07T09:39:10.036Z,14.80
2023-04-07T09:41:38.406Z,14.80
2023-04-07T09:44:06.894Z,14.80
2023-04-07T09:46:50.111Z,14.90
2023-04-07T09:49:20.368Z,15.00
2023-04-07T09:51:55.646Z,15.00
2023-04-07T09:54:36.052Z,15.00
2023-04-07T09:57:05.070Z,15.00
2023-04-07T09:59:35.467Z,15.00
2023-04-07T10:02:04.374Z,15.00
2023-04-07T10:04:33.152Z,14.90
2023-04-07T10:07:03.637Z,14.90
2023-04-07T10:09:32.922Z,15.00
2023-04-07T10:12:03.129Z,15.00
2023-04-07T10:14:33.655Z,15.10
2023-04-07T10:17:02.747Z,15.10
2023-04-07T10:19:33.870Z,15.20
2023-04-07T10:22:06.989Z,15.20
2023-04-07T10:24:48.258Z,15.30
2023-04-07T10:27:21.951Z,15.30
2023-04-07T10:29:52.646Z,15.30
2023-04-07T10:32:21.326Z,15.30
2023-04-07T10:35:01.274Z,15.30
2023-04-07T10:37:29.840Z,15.30
2023-04-07T10:40:29.503Z,15.50
2023-04-07T10:42:59.606Z,15.50
2023-04-07T10:45:59.473Z,15.60
2023-04-07T10:48:33.322Z,15.70
2023-04-07T10:51:16.686Z,15.70
2023-04-07T10:54:22.521Z,15.60
2023-04-07T10:57:13.254Z,15.70
2023-04-07T11:00:20.542Z,15.90
2023-04-07T11:02:49.087Z,16.20
2023-04-07T11:05:24.524Z,16.20
2023-04-07T11:07:57.818Z,16.30
2023-04-07T11:10:27.661Z,16.40
2023-04-07T11:13:07.740Z,16.50
2023-04-07T11:15:40.276Z,16.70
2023-04-07T11:18:12.067Z,16.90
2023-04-07T11:20:51.542Z,17.10
2023-04-07T11:23:33.014Z,17.40
2023-04-07T11:26:07.884Z,17.40
2023-04-07T11:28:37.121Z,17.20
2023-04-07T11:31:09.295Z,17.40
2023-04-07T11:33:39.593Z,17.60
2023-04-07T11:36:12.761Z,17.70
2023-04-07T11:38:47.255Z,18.20
2023-04-07T11:41:17.192Z,18.40
2023-04-07T11:43:52.666Z,18.60
2023-04-07T11:46:26.209Z,18.70
2023-04-07T11:48:55.907Z,18.50
2023-04-07T11:51:28.542Z,18.70
2023-04-07T11:54:02.370Z,18.90
2023-04-07T11:56:31.380Z,19.30
2023-04-07T11:59:00.259Z,19.40
2023-04-07T12:01:46.881Z,19.80
2023-04-07T12:04:19.481Z,19.90
2023-04-07T12:07:15.734Z,19.70
2023-04-07T12:09:48.506Z,19.40
2023-04-07T12:17:13.529Z,18.80
2023-04-07T12:25:56.057Z,18.30
2023-04-07T12:28:28.575Z,18.30
2023-04-07T12:31:03.691Z,17.90
2023-04-07T12:33:48.296Z,17.60
2023-04-07T12:36:27.312Z,17.40
2023-04-07T12:39:12.877Z,17.50
2023-04-07T12:41:53.869Z,17.60
2023-04-07T12:44:29.056Z,17.70
2023-04-07T12:46:57.834Z,17.60
2023-04-07T12:49:30.342Z,17.50
2023-04-07T12:51:58.990Z,17.50
2023-04-07T12:54:34.733Z,17.50
2023-04-07T12:57:03.721Z,17.70
2023-04-07T12:59:34.156Z,17.80
2023-04-07T13:02:06.217Z,18.00
2023-04-07T13:04:42.466Z,18.10
2023-04-07T13:07:15.391Z,18.40
2023-04-07T13:09:44.577Z,18.70
2023-04-07T13:12:13.474Z,19.10
2023-04-07T13:14:56.945Z,19.50
2023-04-07T13:17:29.041Z,19.70
2023-04-07T13:20:03.407Z,19.90
2023-04-07T13:22:36.001Z,19.80
2023-04-07T13:25:05.040Z,19.60
2023-04-07T13:27:33.824Z,19.30
2023-04-07T13:30:02.405Z,19.30
2023-04-07T13:32:31.537Z,19.10
2023-04-07T13:35:01.632Z,19.00
2023-04-07T13:37:32.851Z,19.00
2023-04-07T13:40:01.307Z,19.00
2023-04-07T13:42:29.739Z,19.00
2023-04-07T13:44:58.284Z,18.90
2023-04-07T13:47:27.087Z,18.80
2023-04-07T13:49:58.242Z,18.60
2023-04-07T13:52:38.261Z,18.40
2023-04-07T13:55:09.933Z,18.20
2023-04-07T13:57:38.178Z,18.00
2023-04-07T14:00:08.835Z,17.80
2023-04-07T14:02:41.386Z,17.70
2023-04-07T14:05:12.364Z,17.70
2023-04-07T14:07:45.689Z,17.70
2023-04-07T14:10:22.054Z,17.80
2023-04-07T14:12:54.384Z,17.80
2023-04-07T14:15:23.578Z,17.90
2023-04-07T14:18:03.322Z,18.20
2023-04-07T14:20:40.570Z,18.70
2023-04-07T14:23:36.444Z,18.80
2023-04-07T14:26:11.808Z,19.10
2023-04-07T14:28:46.357Z,19.20
2023-04-07T14:31:18.938Z,19.30
2023-04-07T14:33:47.801Z,19.20
2023-04-07T14:36:18.230Z,19.20
2023-04-07T14:38:48.177Z,19.20
2023-04-07T14:41:16.906Z,19.20
2023-04-07T14:43:48.774Z,19.30
2023-04-07T14:46:20.873Z,19.20
2023-04-07T14:48:52.208Z,19.10
2023-04-07T14:51:21.801Z,19.00
2023-04-07T14:53:56.355Z,19.00
2023-04-07T14:56:25.652Z,18.80
2023-04-07T14:58:54.779Z,18.60
2023-04-07T15:01:23.299Z,18.30
2023-04-07T15:03:53.502Z,18.10
2023-04-07T15:06:36.278Z,17.90
2023-04-07T15:09:06.888Z,17.60
2023-04-07T15:11:39.986Z,17.30
2023-04-07T15:14:10.567Z,17.00
2023-04-07T15:20:16.695Z,16.60
2023-04-07T15:22:54.874Z,16.40
2023-04-07T15:25:30.895Z,16.30
2023-04-07T15:28:11.035Z,16.10
2023-04-07T15:31:01.044Z,16.00
2023-04-07T15:33:33.611Z,15.80
2023-04-07T15:36:15.865Z,15.60
2023-04-07T15:39:19.945Z,15.40
2023-04-07T15:41:54.386Z,15.20
2023-04-07T15:44:25.981Z,15.00
2023-04-07T15:46:59.894Z,14.90
2023-04-07T15:49:39.261Z,14.80
2023-04-07T15:52:23.714Z,14.70
2023-04-07T15:54:53.856Z,14.50
2023-04-07T15:57:35.018Z,14.40
2023-04-07T16:00:19.422Z,14.30
2023-04-07T16:02:48.264Z,14.20
2023-04-07T16:05:16.897Z,14.10
2023-04-07T16:07:45.249Z,13.90
2023-04-07T16:10:14.114Z,13.80
2023-04-07T16:12:52.452Z,13.70
2023-04-07T16:15:32.816Z,13.60
2023-04-07T16:18:32.040Z,13.50
2023-04-07T16:21:12.153Z,13.50
2023-04-07T16:24:33.169Z,13.30
2023-04-07T16:27:15.503Z,13.10
2023-04-07T16:29:56.435Z,12.90
2023-04-07T16:32:28.069Z,12.80
2023-04-07T16:34:56.782Z,12.70
2023-04-07T16:37:25.156Z,12.60
2023-04-07T16:39:57.294Z,12.50
2023-04-07T16:42:28.509Z,12.30
2023-04-07T16:45:04.472Z,12.20
2023-04-07T16:47:33.119Z,11.90
2023-04-07T16:50:01.685Z,11.90
2023-04-07T16:52:36.102Z,11.80
2023-04-07T16:55:07.743Z,11.80
2023-04-07T16:57:37.933Z,11.60
2023-04-07T17:00:13.035Z,11.60
2023-04-07T17:02:42.444Z,11.50
2023-04-07T17:05:28.330Z,11.50
2023-04-07T17:08:00.156Z,11.40
2023-04-07T17:10:31.206Z,11.30
2023-04-07T17:12:59.556Z,11.40
2023-04-07T17:15:29.464Z,11.10
2023-04-07T17:17:58.753Z,11.10
2023-04-07T17:20:36.299Z,11.10
2023-04-07T17:23:27.088Z,11.00
2023-04-07T17:26:04.935Z,11.10
2023-04-07T17:28:45.954Z,10.90
2023-04-07T17:31:18.318Z,10.90
2023-04-07T17:33:53.100Z,10.80
2023-04-07T17:36:36.208Z,10.80
2023-04-07T17:39:09.727Z,10.80
2023-04-07T17:42:03.630Z,10.80
2023-04-07T17:44:39.704Z,10.80
2023-04-07T17:47:25.547Z,10.80
2023-04-07T17:49:58.806Z,10.60
2023-04-07T17:52:36.115Z,10.50
2023-04-07T17:55:18.636Z,10.60
2023-04-07T17:57:47.525Z,10.60
2023-04-07T18:00:25.882Z,10.50
2023-04-07T18:02:59.245Z,10.50
2023-04-07T18:05:31.207Z,10.50
2023-04-07T18:08:06.127Z,10.40
2023-04-07T18:10:47.234Z,10.60
2023-04-07T18:13:18.966Z,10.40
2023-04-07T18:15:50.530Z,10.30
2023-04-07T18:18:25.393Z,10.30
2023-04-07T18:21:07.998Z,10.20
2023-04-07T18:23:46.946Z,10.20
2023-04-07T18:26:24.037Z,10.20
2023-04-07T18:29:11.147Z,10.00
2023-04-07T18:32:22.225Z,10.10
2023-04-07T18:39:42.348Z,9.90
2023-04-07T18:43:07.522Z,9.80
2023-04-07T18:46:13.921Z,9.80
2023-04-07T18:51:53.687Z,9.70
2023-04-07T18:54:49.834Z,9.50
2023-04-07T18:57:54.435Z,9.60
2023-04-07T19:00:59.675Z,9.60
2023-04-07T19:03:47.667Z,9.60
2023-04-07T19:06:34.221Z,9.60
2023-04-07T19:12:37.537Z,9.50
2023-04-07T19:16:03.968Z,9.30
2023-04-07T19:18:43.724Z,9.50
2023-04-07T19:21:54.128Z,9.40
2023-04-07T19:25:03.216Z,9.40
2023-04-07T19:28:12.428Z,9.30
2023-04-07T19:31:01.887Z,9.30
2023-04-07T19:34:19.093Z,9.10
2023-04-07T19:37:28.767Z,9.30
2023-04-07T19:40:11.108Z,9.20
2023-04-07T19:42:59.509Z,9.30
2023-04-07T19:45:49.104Z,9.20
2023-04-07T19:48:57.589Z,9.20
2023-04-07T19:51:35.042Z,9.10
2023-04-07T19:54:03.611Z,9.10
2023-04-07T19:56:31.952Z,9.10
2023-04-07T19:59:28.437Z,9.30
2023-04-07T20:02:35.646Z,9.10
2023-04-07T20:05:17.006Z,8.80
2023-04-07T20:08:04.523Z,9.00
2023-04-07T20:10:46.019Z,9.10
2023-04-07T20:13:50.176Z,9.00
2023-04-07T20:20:03.762Z,9.00
2023-04-07T20:23:17.041Z,8.80
2023-04-07T20:26:12.367Z,8.90
2023-04-07T20:28:48.194Z,8.90
2023-04-07T20:31:28.827Z,8.90
2023-04-07T20:34:28.277Z,8.90
2023-04-07T20:37:34.979Z,8.80
2023-04-07T20:40:34.729Z,8.90
2023-04-07T20:43:25.846Z,8.80
2023-04-07T20:46:15.116Z,8.80
2023-04-07T20:49:07.859Z,8.70
2023-04-07T20:51:37.043Z,8.60
2023-04-07T20:54:06.848Z,8.50
2023-04-07T20:56:35.608Z,8.50
2023-04-07T20:59:03.804Z,8.50
2023-04-07T21:01:32.662Z,8.50
2023-04-07T21:04:07.512Z,8.50
2023-04-07T21:06:42.221Z,8.50
2023-04-07T21:09:25.579Z,8.40
2023-04-07T21:12:11.383Z,8.30
2023-04-07T21:14:40.078Z,8.30
2023-04-07T21:17:34.296Z,8.50
2023-04-07T21:20:37.648Z,8.20
2023-04-07T21:23:15.006Z,8.20
2023-04-07T21:26:08.716Z,8.20
2023-04-07T21:28:45.324Z,8.20
2023-04-07T21:31:28.665Z,8.10
2023-04-07T21:34:24.712Z,8.10
2023-04-07T21:37:00.882Z,8.20
2023-04-07T21:39:43.841Z,8.10
2023-04-07T21:42:25.103Z,8.10
2023-04-07T21:45:06.276Z,8.00
2023-04-07T21:48:13.082Z,7.90
2023-04-07T21:51:16.984Z,7.90
2023-04-07T21:53:50.747Z,7.80
2023-04-07T21:56:20.441Z,7.70
2023-04-07T22:02:08.460Z,7.70
2023-04-07T22:04:37.404Z,7.70
2023-04-07T22:07:05.774Z,7.70
2023-04-07T22:09:34.062Z,7.70
2023-04-07T22:12:02.807Z,7.70
2023-04-07T22:14:31.147Z,7.70
2023-04-07T22:16:59.512Z,7.80
2023-04-07T22:19:29.336Z,7.80
2023-04-07T22:21:57.633Z,7.70
2023-04-07T22:24:25.930Z,7.70
2023-04-07T22:26:55.578Z,7.80
2023-04-07T22:29:38.110Z,7.80
2023-04-07T22:32:09.207Z,8.00
2023-04-07T22:34:58.513Z,7.90
2023-04-07T22:37:29.080Z,7.80
2023-04-07T22:39:58.629Z,7.90
2023-04-07T22:42:27.051Z,7.90
2023-04-07T22:44:55.433Z,7.80
2023-04-07T22:47:23.620Z,7.80
2023-04-07T22:49:53.276Z,8.10
2023-04-07T22:52:21.513Z,7.80
2023-04-07T22:54:49.833Z,7.80
2023-04-07T22:57:20.474Z,7.80
2023-04-07T22:59:49.774Z,7.60
2023-04-07T23:05:31.022Z,7.80
2023-04-07T23:08:20.783Z,7.80
2023-04-07T23:11:06.629Z,7.80
2023-04-07T23:16:20.183Z,8.00
2023-04-07T23:18:50.031Z,7.80
2023-04-07T23:21:31.360Z,7.70
2023-04-07T23:23:59.888Z,7.70
2023-04-07T23:26:29.287Z,7.90
2023-04-07T23:31:54.229Z,7.70
2023-04-07T23:34:39.249Z,7.70
2023-04-07T23:37:09.222Z,7.70
2023-04-07T23:39:38.413Z,7.70
2023-04-07T23:42:08.126Z,7.70
2023-04-07T23:47:18.838Z,7.90
2023-04-07T23:49:48.130Z,7.80
2023-04-07T23:52:21.518Z,7.80
2023-04-07T23:54:49.901Z,7.80
2023-04-07T23:57:18.151Z,7.90
